Time;durP1;ratioP1;P1;durP2;ratioP2;P2;SDS_P1;SDS_P2;PMS_P1;PMS_P2;Temp;Humidity;BMP_temperature;BMP_pressure;BME280_temperature;BME280_humidity;BME280_pressure;Samples;Min_cycle;Max_cycle;Signal;HPM_P1;HPM_P2
2023/03/05 00:00:36;;;;;;;4.95;1.05;;;3.80;90.00;;;;;;5098052;28;20036;-76
2023/03/05 00:03:02;;;;;;;6.00;1.30;;;3.80;90.10;;;;;;5081302;28;20116;-76
2023/03/05 00:05:28;;;;;;;2.83;1.08;;;3.80;90.10;;;;;;5097886;28;20104;-76
2023/03/05 00:07:54;;;;;;;4.80;1.30;;;3.70;90.10;;;;;;5098038;28;20051;-76
2023/03/05 00:10:20;;;;;;;6.60;1.45;;;3.70;90.00;;;;;;5097716;28;20480;-76
2023/03/05 00:12:45;;;;;;;3.67;0.80;;;3.70;90.20;;;;;;5080865;28;20097;-76
2023/03/05 00:15:11;;;;;;;4.28;0.85;;;3.70;90.10;;;;;;5080844;28;20036;-76
2023/03/05 00:17:37;;;;;;;4.00;0.82;;;3.70;90.10;;;;;;5097694;28;20070;-76
2023/03/05 00:20:03;;;;;;;5.13;0.90;;;3.60;90.00;;;;;;5097607;28;20076;-76
2023/03/05 00:22:29;;;;;;;3.60;1.30;;;3.60;89.90;;;;;;5098205;28;20392;-76
2023/03/05 00:24:54;;;;;;;3.67;0.75;;;3.60;89.70;;;;;;5080729;28;20043;-76
2023/03/05 00:27:20;;;;;;;3.63;1.13;;;3.60;89.70;;;;;;5097445;28;20093;-77
2023/03/05 00:29:46;;;;;;;5.85;1.80;;;3.70;89.80;;;;;;5097362;28;20036;-75
2023/03/05 00:32:11;;;;;;;2.78;0.57;;;3.60;89.50;;;;;;5097549;28;20356;-75
2023/03/05 00:34:37;;;;;;;2.28;0.70;;;3.70;89.50;;;;;;5079605;28;20031;-75
2023/03/05 00:37:03;;;;;;;3.05;0.80;;;3.60;89.50;;;;;;5097512;28;20135;-75
2023/03/05 00:39:29;;;;;;;3.95;0.80;;;3.60;89.50;;;;;;5063815;28;20472;-75
2023/03/05 00:41:54;;;;;;;7.80;1.48;;;3.60;89.50;;;;;;5097120;28;20039;-75
2023/03/05 00:44:20;;;;;;;3.65;0.88;;;3.60;89.40;;;;;;5080256;28;20035;-76
2023/03/05 00:46:46;;;;;;;6.15;0.98;;;3.60;89.50;;;;;;5097166;28;20040;-77
2023/03/05 00:49:12;;;;;;;6.38;1.33;;;3.60;89.50;;;;;;5097376;28;20085;-77
2023/03/05 00:51:38;;;;;;;5.20;0.70;;;3.60;89.60;;;;;;5079957;28;20403;-77
2023/03/05 00:54:04;;;;;;;3.08;0.90;;;3.50;89.50;;;;;;5096867;28;20100;-77
2023/03/05 00:56:30;;;;;;;3.90;1.58;;;3.50;89.30;;;;;;5079975;28;20101;-77
2023/03/05 00:58:56;;;;;;;3.80;0.80;;;3.50;89.40;;;;;;5096746;28;20048;-77
2023/03/05 01:01:23;;;;;;;2.58;0.70;;;3.50;89.40;;;;;;5096822;28;20096;-77
2023/03/05 01:03:49;;;;;;;3.85;1.10;;;3.50;89.30;;;;;;5096763;28;20479;-77
2023/03/05 01:06:15;;;;;;;7.45;1.40;;;3.40;89.40;;;;;;5096821;28;20046;-77
2023/03/05 01:08:42;;;;;;;4.57;0.80;;;3.40;89.40;;;;;;5080019;28;20398;-77
2023/03/05 01:11:09;;;;;;;6.60;1.42;;;3.40;89.60;;;;;;5096714;28;20040;-77
2023/03/05 01:13:35;;;;;;;5.40;1.05;;;3.40;89.70;;;;;;5096470;28;20071;-77
2023/03/05 01:16:01;;;;;;;5.55;1.10;;;3.40;89.70;;;;;;5096491;28;20534;-77
2023/03/05 01:18:27;;;;;;;6.32;1.20;;;3.40;89.70;;;;;;5096821;28;20043;-77
2023/03/05 01:20:53;;;;;;;4.63;0.95;;;3.30;89.70;;;;;;5096743;28;20138;-77
2023/03/05 01:23:19;;;;;;;3.85;1.08;;;3.30;89.80;;;;;;5096287;28;20036;-77
2023/03/05 01:25:51;;;;;;;3.45;0.90;;;3.20;89.80;;;;;;5096458;28;20042;-77
2023/03/05 01:28:17;;;;;;;7.32;1.73;;;3.20;89.90;;;;;;5096708;28;20406;-77
2023/03/05 01:30:42;;;;;;;6.70;1.20;;;3.30;89.90;;;;;;5096159;28;20130;-77
2023/03/05 01:33:08;;;;;;;6.53;1.00;;;3.30;90.00;;;;;;5096224;28;20108;-77
2023/03/05 01:35:34;;;;;;;3.95;0.93;;;3.20;90.00;;;;;;5096523;28;20031;-76
2023/03/05 01:37:59;;;;;;;5.10;1.00;;;3.20;90.00;;;;;;5079303;28;20472;-77
2023/03/05 01:40:28;;;;;;;5.95;1.08;;;3.30;90.00;;;;;;5096123;28;20043;-76
2023/03/05 01:43:00;;;;;;;5.32;1.08;;;3.30;90.10;;;;;;5095906;28;20101;-77
2023/03/05 01:45:31;;;;;;;8.50;1.10;;;3.30;90.10;;;;;;5095980;28;20119;-77
2023/03/05 01:47:57;;;;;;;5.18;1.02;;;3.30;90.20;;;;;;5079294;28;20055;-76
2023/03/05 01:50:24;;;;;;;4.63;0.93;;;3.40;90.40;;;;;;5095915;28;20483;-76
2023/03/05 01:52:59;;;;;;;4.03;0.88;;;3.40;90.30;;;;;;5095951;28;20468;-74
2023/03/05 01:55:27;;;;;;;3.35;0.90;;;3.40;90.30;;;;;;5096048;28;20092;-74
2023/03/05 01:58:13;;;;;;;4.18;0.80;;;3.40;90.30;;;;;;5071847;28;20528;-74
2023/03/05 02:00:44;;;;;;;6.93;0.70;;;3.40;90.30;;;;;;5072023;28;20529;-74
2023/03/05 02:03:12;;;;;;;1.58;0.88;;;3.40;90.40;;;;;;5072071;28;20117;-74
2023/03/05 02:05:42;;;;;;;1.83;0.50;;;3.40;90.40;;;;;;5055439;28;20044;-75
2023/03/05 02:08:10;;;;;;;5.90;0.93;;;3.40;90.40;;;;;;5072307;28;20177;-74
2023/03/05 02:10:39;;;;;;;4.10;0.70;;;3.40;90.30;;;;;;5071777;28;20070;-74
2023/03/05 02:13:08;;;;;;;1.52;0.50;;;3.50;90.20;;;;;;5072022;28;20040;-74
2023/03/05 02:15:35;;;;;;;4.00;0.60;;;3.40;89.90;;;;;;5072012;28;20040;-76
2023/03/05 02:18:01;;;;;;;4.20;0.70;;;3.50;89.80;;;;;;5072050;28;20036;-76
2023/03/05 02:20:40;;;;;;;3.25;0.50;;;3.40;89.80;;;;;;5055297;28;20122;-76
2023/03/05 02:23:06;;;;;;;5.43;0.90;;;3.40;89.80;;;;;;5072092;28;20052;-76
2023/03/05 02:25:32;;;;;;;2.53;0.63;;;3.40;89.80;;;;;;5071973;28;20503;-76
2023/03/05 02:28:04;;;;;;;3.13;0.60;;;3.40;89.90;;;;;;5071949;28;20472;-76
2023/03/05 02:30:30;;;;;;;2.17;0.60;;;3.30;89.90;;;;;;5071972;28;20066;-76
2023/03/05 02:32:57;;;;;;;3.65;0.63;;;3.30;90.00;;;;;;5072159;28;20539;-76
2023/03/05 02:35:23;;;;;;;2.63;0.45;;;3.20;90.30;;;;;;5071931;28;20041;-76
2023/03/05 02:37:49;;;;;;;2.50;1.05;;;3.20;90.40;;;;;;5089547;28;20530;-76
2023/03/05 02:40:15;;;;;;;2.53;0.60;;;3.20;90.30;;;;;;5075471;28;20043;-76
2023/03/05 02:42:41;;;;;;;5.15;0.50;;;3.10;90.40;;;;;;5092058;28;20507;-76
2023/03/05 02:45:08;;;;;;;2.75;0.65;;;3.10;90.40;;;;;;5091920;28;20082;-76
2023/03/05 02:47:34;;;;;;;3.17;1.10;;;3.10;90.60;;;;;;5075025;28;20075;-76
2023/03/05 02:50:00;;;;;;;2.42;0.90;;;3.10;90.60;;;;;;5091865;28;20075;-76
2023/03/05 02:52:28;;;;;;;1.67;0.70;;;3.00;90.70;;;;;;5075339;28;20039;-76
2023/03/05 02:54:54;;;;;;;6.25;0.90;;;3.00;90.80;;;;;;5074808;28;20503;-76
2023/03/05 02:57:20;;;;;;;3.13;0.80;;;3.30;91.00;;;;;;5093373;27;20036;-76
2023/03/05 02:59:46;;;;;;;6.85;0.70;;;3.30;90.90;;;;;;5119879;27;20046;-76
2023/03/05 03:02:12;;;;;;;3.55;0.70;;;3.40;90.90;;;;;;5119531;27;20062;-75
2023/03/05 03:04:39;;;;;;;1.23;0.40;;;3.40;90.70;;;;;;5102181;27;20180;-76
2023/03/05 03:07:04;;;;;;;4.60;0.68;;;3.50;90.80;;;;;;5099760;27;20046;-76
2023/03/05 03:09:32;;;;;;;3.47;0.90;;;3.50;90.50;;;;;;5119337;27;20039;-76
2023/03/05 03:11:58;;;;;;;6.30;1.05;;;3.50;90.40;;;;;;5119192;27;20479;-76
2023/03/05 03:14:23;;;;;;;4.78;1.55;;;3.50;90.50;;;;;;5102347;27;20042;-75
2023/03/05 03:16:49;;;;;;;5.28;1.25;;;3.50;90.30;;;;;;5119175;27;20543;-75
2023/03/05 03:19:15;;;;;;;3.20;0.70;;;3.40;90.30;;;;;;5153541;27;20042;-76
2023/03/05 03:21:40;;;;;;;4.07;0.70;;;3.50;90.30;;;;;;5119603;27;20043;-75
2023/03/05 03:24:06;;;;;;;6.18;0.90;;;3.40;90.30;;;;;;5102118;27;20494;-76
2023/03/05 03:26:32;;;;;;;3.78;0.77;;;3.30;90.40;;;;;;5153311;27;20035;-76
2023/03/05 03:28:58;;;;;;;2.63;0.68;;;3.40;90.40;;;;;;5118993;27;20072;-76
2023/03/05 03:31:24;;;;;;;4.60;0.90;;;3.30;90.40;;;;;;5153230;27;20039;-76
2023/03/05 03:33:50;;;;;;;3.17;0.85;;;3.30;90.60;;;;;;5118766;27;20031;-75
2023/03/05 03:36:15;;;;;;;3.50;0.80;;;3.30;90.50;;;;;;5135949;27;20125;-75
2023/03/05 03:38:41;;;;;;;3.85;0.80;;;3.30;90.60;;;;;;5153237;27;20039;-75
2023/03/05 03:41:08;;;;;;;2.45;0.50;;;3.20;90.60;;;;;;5118847;27;20039;-75
2023/03/05 03:43:35;;;;;;;7.13;1.33;;;3.10;90.70;;;;;;5118730;27;20083;-75
2023/03/05 03:46:03;;;;;;;2.33;1.10;;;3.10;90.80;;;;;;5118784;27;20050;-75
2023/03/05 03:48:29;;;;;;;6.65;0.90;;;3.10;90.80;;;;;;5118997;27;20386;-75
2023/03/05 03:50:55;;;;;;;6.40;0.98;;;3.00;90.90;;;;;;5153099;27;20035;-75
2023/03/05 03:53:20;;;;;;;1.98;0.90;;;3.00;91.00;;;;;;5118865;27;20043;-75
2023/03/05 03:55:46;;;;;;;2.92;0.90;;;3.00;91.10;;;;;;5152909;27;20410;-75
2023/03/05 03:58:12;;;;;;;3.28;1.00;;;3.00;91.30;;;;;;5101385;27;20083;-76
2023/03/05 04:00:39;;;;;;;3.13;1.30;;;3.30;91.10;;;;;;5101594;27;20043;-75
2023/03/05 04:03:05;;;;;;;5.35;1.08;;;3.20;90.80;;;;;;5118355;27;20535;-75
2023/03/05 04:05:31;;;;;;;6.72;0.88;;;3.10;91.00;;;;;;5101573;27;20050;-76
2023/03/05 04:07:58;;;;;;;7.07;1.02;;;3.10;91.00;;;;;;5100585;28;20043;-75
2023/03/05 04:10:25;;;;;;;1.70;0.70;;;3.10;91.20;;;;;;5117839;27;20494;-75
2023/03/05 04:12:50;;;;;;;2.97;0.88;;;3.10;91.30;;;;;;5101400;27;20043;-75
2023/03/05 04:15:16;;;;;;;2.58;0.70;;;3.10;91.20;;;;;;5101844;27;20031;-76
2023/03/05 04:17:42;;;;;;;1.73;0.60;;;3.10;91.20;;;;;;5101288;27;20035;-75
2023/03/05 04:20:09;;;;;;;2.58;0.50;;;3.10;91.30;;;;;;5117998;27;20133;-75
2023/03/05 04:22:36;;;;;;;2.33;0.60;;;3.10;91.30;;;;;;5117836;27;20039;-75
2023/03/05 04:25:05;;;;;;;5.40;0.77;;;3.20;91.00;;;;;;5117962;27;20148;-75
2023/03/05 04:27:33;;;;;;;2.42;0.60;;;3.20;90.90;;;;;;5101705;27;20372;-75
2023/03/05 04:29:59;;;;;;;3.50;0.88;;;3.20;90.70;;;;;;5118029;27;20074;-75
2023/03/05 04:32:25;;;;;;;2.65;0.60;;;3.20;90.50;;;;;;5117783;27;20039;-75
2023/03/05 04:34:51;;;;;;;5.28;0.73;;;3.20;90.50;;;;;;5118009;27;20356;-75
2023/03/05 04:37:16;;;;;;;4.35;0.80;;;3.20;90.50;;;;;;5117838;27;20038;-75
2023/03/05 04:39:42;;;;;;;3.33;1.00;;;3.20;90.50;;;;;;5117752;27;20027;-75
2023/03/05 04:42:09;;;;;;;7.30;1.33;;;3.10;90.50;;;;;;5083819;27;20042;-75
2023/03/05 04:44:35;;;;;;;3.65;0.68;;;3.10;90.60;;;;;;5100822;27;20078;-75
2023/03/05 04:47:01;;;;;;;2.30;0.70;;;3.10;90.60;;;;;;5100600;27;20045;-75
2023/03/05 04:49:27;;;;;;;4.45;0.80;;;3.10;90.60;;;;;;5100904;27;20035;-75
2023/03/05 04:51:52;;;;;;;3.88;1.00;;;3.10;90.60;;;;;;5100454;27;20482;-75
2023/03/05 04:54:18;;;;;;;6.00;1.10;;;3.10;90.60;;;;;;5117596;27;20035;-75
2023/03/05 04:56:44;;;;;;;5.63;0.90;;;3.10;90.60;;;;;;5117311;27;20039;-75
2023/03/05 04:59:10;;;;;;;2.95;0.90;;;3.10;90.70;;;;;;5117092;27;20051;-76
2023/03/05 05:01:36;;;;;;;5.65;0.80;;;3.10;90.70;;;;;;5117421;27;20043;-75
2023/03/05 05:04:01;;;;;;;6.03;0.85;;;3.00;90.80;;;;;;5100482;27;20126;-75
2023/03/05 05:06:27;;;;;;;2.85;0.77;;;3.10;91.00;;;;;;5117452;27;20553;-75
2023/03/05 05:08:53;;;;;;;4.80;0.90;;;3.10;90.60;;;;;;5100181;27;20084;-75
2023/03/05 05:11:18;;;;;;;7.22;1.08;;;3.10;90.50;;;;;;5116938;27;20046;-76
2023/03/05 05:13:44;;;;;;;3.42;0.98;;;3.10;90.60;;;;;;5100072;27;20114;-76
2023/03/05 05:16:10;;;;;;;1.50;0.70;;;3.20;90.40;;;;;;5117241;27;20184;-76
2023/03/05 05:18:36;;;;;;;9.80;1.42;;;3.20;90.50;;;;;;5117211;27;20619;-76
2023/03/05 05:21:06;;;;;;;5.80;0.90;;;3.20;90.50;;;;;;5116582;27;20046;-75
2023/03/05 05:23:32;;;;;;;9.10;2.17;;;3.20;90.50;;;;;;5099886;27;20050;-76
2023/03/05 05:26:00;;;;;;;5.15;1.10;;;3.20;90.80;;;;;;5100193;27;20039;-75
2023/03/05 05:28:26;;;;;;;5.57;0.77;;;3.30;90.60;;;;;;5116750;27;20047;-75
2023/03/05 05:30:52;;;;;;;4.68;1.08;;;3.20;90.40;;;;;;5116607;27;20088;-75
2023/03/05 05:33:19;;;;;;;7.90;1.00;;;3.20;90.40;;;;;;5116776;27;20104;-75
2023/03/05 05:35:44;;;;;;;6.05;0.85;;;3.30;90.50;;;;;;5116727;27;20121;-75
2023/03/05 05:38:10;;;;;;;3.78;0.65;;;3.20;90.40;;;;;;5099989;27;20138;-76
2023/03/05 05:40:36;;;;;;;5.88;0.88;;;3.20;90.40;;;;;;5099563;27;20039;-76
2023/03/05 05:43:02;;;;;;;7.10;2.30;;;3.10;90.40;;;;;;5116434;27;20129;-76
2023/03/05 05:45:27;;;;;;;10.38;1.98;;;3.10;90.40;;;;;;5116808;27;20039;-76
2023/03/05 05:47:53;;;;;;;5.43;1.05;;;3.00;90.50;;;;;;5116510;27;20414;-76
2023/03/05 05:50:19;;;;;;;3.80;1.08;;;3.00;90.60;;;;;;5116604;27;20043;-76
2023/03/05 05:52:45;;;;;;;7.00;1.30;;;3.00;90.60;;;;;;5099580;27;20383;-76
2023/03/05 05:55:12;;;;;;;3.72;0.90;;;3.00;90.60;;;;;;5099173;27;20035;-76
2023/03/05 05:57:37;;;;;;;5.20;1.17;;;3.00;90.70;;;;;;5116193;27;20031;-76
2023/03/05 06:00:07;;;;;;;3.50;0.85;;;3.00;90.70;;;;;;5150207;27;20188;-76
2023/03/05 06:02:36;;;;;;;4.97;1.27;;;2.90;90.70;;;;;;5116248;27;20046;-76
2023/03/05 06:05:01;;;;;;;10.82;1.33;;;2.90;90.80;;;;;;5116160;27;20039;-75
2023/03/05 06:07:27;;;;;;;6.28;1.30;;;2.90;90.80;;;;;;5150692;27;20054;-76
2023/03/05 06:09:53;;;;;;;9.15;1.88;;;2.90;90.90;;;;;;5150447;27;20477;-76
2023/03/05 06:12:18;;;;;;;6.65;1.73;;;2.90;90.90;;;;;;5098919;27;20104;-76
2023/03/05 06:14:44;;;;;;;10.38;1.20;;;2.90;90.90;;;;;;5133292;27;20118;-75
2023/03/05 06:17:10;;;;;;;2.53;1.00;;;2.80;90.90;;;;;;5116166;27;20126;-76
2023/03/05 06:19:35;;;;;;;6.72;1.50;;;2.80;91.00;;;;;;5115794;28;20475;-76
2023/03/05 06:22:01;;;;;;;5.05;1.40;;;2.80;91.00;;;;;;5099218;27;20046;-76
2023/03/05 06:24:27;;;;;;;7.75;2.67;;;2.80;91.10;;;;;;5099124;28;20070;-76
2023/03/05 06:26:52;;;;;;;8.85;1.45;;;2.90;91.00;;;;;;5116073;28;20047;-76
2023/03/05 06:29:18;;;;;;;7.45;1.23;;;2.80;91.00;;;;;;5098864;28;20118;-76
2023/03/05 06:31:44;;;;;;;6.63;2.25;;;2.80;91.10;;;;;;5099758;27;20092;-77
2023/03/05 06:34:11;;;;;;;5.43;0.98;;;2.80;91.00;;;;;;5154788;27;20471;-76
2023/03/05 06:36:37;;;;;;;5.10;1.02;;;2.80;91.00;;;;;;5120042;27;20121;-76
2023/03/05 06:39:04;;;;;;;7.90;1.27;;;2.80;91.00;;;;;;5102918;27;20043;-76
2023/03/05 06:41:30;;;;;;;6.13;1.60;;;2.80;91.00;;;;;;5103237;27;20096;-75
2023/03/05 06:43:58;;;;;;;4.90;1.35;;;2.80;91.00;;;;;;5120268;27;20064;-76
2023/03/05 06:46:26;;;;;;;5.40;1.30;;;2.80;91.00;;;;;;5120174;27;20054;-76
2023/03/05 06:48:54;;;;;;;5.40;1.30;;;2.80;91.00;;;;;;5102900;27;20467;-76
2023/03/05 06:51:29;;;;;;;5.40;0.93;;;2.80;90.90;;;;;;5102771;27;20510;-76
2023/03/05 06:53:55;;;;;;;;;;;2.80;91.00;;;;;;5120506;27;20132;-76
2023/03/05 06:56:21;;;;;;;2.92;1.15;;;2.90;90.80;;;;;;5086144;27;19922;-76
2023/03/05 06:58:49;;;;;;;6.75;1.60;;;3.00;90.70;;;;;;5119780;27;20039;-77
2023/03/05 07:01:15;;;;;;;6.45;1.13;;;3.00;90.40;;;;;;5119409;27;20055;-76
2023/03/05 07:03:41;;;;;;;4.10;1.08;;;3.00;90.30;;;;;;5102485;27;20050;-77
2023/03/05 07:06:10;;;;;;;5.22;1.00;;;3.00;90.30;;;;;;5102860;27;20481;-76
2023/03/05 07:08:37;;;;;;;9.40;3.35;;;3.00;90.20;;;;;;5119682;27;20043;-76
2023/03/05 07:11:07;;;;;;;5.43;1.20;;;3.00;90.30;;;;;;5119702;27;20039;-76
2023/03/05 07:13:33;;;;;;;5.55;1.20;;;3.00;90.30;;;;;;5102304;27;20113;-76
2023/03/05 07:16:03;;;;;;;3.80;1.30;;;3.10;90.30;;;;;;5102693;27;20043;-76
2023/03/05 07:18:29;;;;;;;4.75;1.30;;;3.10;90.40;;;;;;5086089;27;20039;-76
2023/03/05 07:20:54;;;;;;;5.00;2.40;;;3.00;90.30;;;;;;5153857;27;20095;-76
2023/03/05 07:23:20;;;;;;;5.55;2.00;;;3.10;90.30;;;;;;5102322;27;20034;-76
2023/03/05 07:25:46;;;;;;;7.30;2.78;;;3.10;90.40;;;;;;5119215;27;20075;-76
2023/03/05 07:28:11;;;;;;;6.00;2.03;;;3.10;90.40;;;;;;5136535;27;20050;-76
2023/03/05 07:30:37;;;;;;;8.30;1.90;;;3.10;90.40;;;;;;5102147;27;20051;-76
2023/03/05 07:33:03;;;;;;;6.70;2.00;;;3.10;90.50;;;;;;5118966;27;20031;-76
2023/03/05 07:35:28;;;;;;;4.35;1.75;;;3.10;90.40;;;;;;5119021;27;20035;-76
2023/03/05 07:37:54;;;;;;;3.50;1.52;;;3.20;90.50;;;;;;5101907;27;20071;-76
2023/03/05 07:40:21;;;;;;;10.93;3.30;;;3.20;90.50;;;;;;5102170;27;20070;-76
2023/03/05 07:42:46;;;;;;;9.25;1.67;;;3.20;90.40;;;;;;5101806;27;20043;-76
2023/03/05 07:45:12;;;;;;;5.43;1.73;;;3.30;90.50;;;;;;5102308;27;20046;-76
2023/03/05 07:47:38;;;;;;;4.53;0.98;;;3.30;90.50;;;;;;5102014;27;20039;-76
2023/03/05 07:50:04;;;;;;;6.55;1.45;;;3.40;90.50;;;;;;5101889;27;20108;-77
2023/03/05 07:52:30;;;;;;;5.80;1.25;;;3.50;90.40;;;;;;5118853;27;20543;-78
2023/03/05 07:54:56;;;;;;;4.60;1.35;;;3.50;90.40;;;;;;5082268;27;20035;-78
2023/03/05 07:57:22;;;;;;;6.03;1.50;;;3.60;90.30;;;;;;5102023;27;20164;-78
2023/03/05 07:59:48;;;;;;;5.20;1.60;;;3.60;90.30;;;;;;5118804;27;20054;-78
2023/03/05 08:02:13;;;;;;;8.60;1.95;;;3.60;90.30;;;;;;5101732;27;20043;-78
2023/03/05 08:04:41;;;;;;;9.45;1.13;;;3.70;90.20;;;;;;5118564;27;20061;-78
2023/03/05 08:07:07;;;;;;;8.40;1.83;;;3.80;90.10;;;;;;5101572;27;20126;-79
2023/03/05 08:09:32;;;;;;;4.88;1.55;;;3.80;90.10;;;;;;5118451;27;20070;-78
2023/03/05 08:11:58;;;;;;;8.05;2.08;;;3.90;89.90;;;;;;5084365;27;20039;-78
2023/03/05 08:14:24;;;;;;;9.07;2.15;;;4.00;89.90;;;;;;5101498;27;20074;-78
2023/03/05 08:16:51;;;;;;;7.25;1.50;;;4.10;89.80;;;;;;5118401;27;20049;-78
2023/03/05 08:19:20;;;;;;;5.20;1.10;;;4.10;89.70;;;;;;5101344;27;20035;-78
2023/03/05 08:21:46;;;;;;;8.88;1.27;;;4.30;89.40;;;;;;5101701;27;20043;-78
2023/03/05 08:24:12;;;;;;;4.63;1.40;;;4.30;89.10;;;;;;5118643;27;20416;-78
2023/03/05 08:26:40;;;;;;;10.40;1.88;;;4.30;88.70;;;;;;5119122;27;20039;-78
2023/03/05 08:29:07;;;;;;;8.30;2.03;;;4.40;88.40;;;;;;5118998;27;20111;-77
2023/03/05 08:31:33;;;;;;;8.65;1.13;;;4.50;88.50;;;;;;5101416;27;20051;-78
2023/03/05 08:34:00;;;;;;;11.27;2.13;;;4.50;88.20;;;;;;5117938;27;20035;-78
2023/03/05 08:36:27;;;;;;;7.57;1.13;;;4.60;88.10;;;;;;5101104;27;20118;-78
2023/03/05 08:38:54;;;;;;;8.48;1.98;;;4.60;88.20;;;;;;5118303;27;20038;-78
2023/03/05 08:41:20;;;;;;;9.82;1.98;;;4.70;88.20;;;;;;5120193;27;20043;-79
2023/03/05 08:43:46;;;;;;;6.88;1.95;;;4.80;87.80;;;;;;5120825;27;20517;-78
2023/03/05 08:46:12;;;;;;;7.03;1.00;;;4.80;87.70;;;;;;5139206;27;20043;-79
2023/03/05 08:48:38;;;;;;;6.15;1.42;;;4.90;87.40;;;;;;5143172;27;20056;-79
2023/03/05 08:51:15;;;;;;;8.88;1.40;;;5.00;87.20;;;;;;5121540;27;20071;-79
2023/03/05 08:53:43;;;;;;;5.55;1.42;;;5.00;87.00;;;;;;5136177;27;20039;-79
2023/03/05 08:56:09;;;;;;;10.30;2.15;;;5.10;86.80;;;;;;5124151;27;20097;-79
2023/03/05 08:58:34;;;;;;;7.10;1.30;;;5.10;86.20;;;;;;5118045;27;20046;-79
2023/03/05 09:01:00;;;;;;;6.63;1.38;;;5.10;86.00;;;;;;5083534;27;20444;-79
2023/03/05 09:03:26;;;;;;;4.38;0.95;;;5.20;85.70;;;;;;5100508;27;20140;-79
2023/03/05 09:05:52;;;;;;;3.95;1.05;;;5.20;85.60;;;;;;5100491;27;20039;-77
2023/03/05 09:08:18;;;;;;;4.18;0.70;;;5.30;85.80;;;;;;5100536;27;20402;-79
2023/03/05 09:10:45;;;;;;;8.18;0.90;;;5.50;85.10;;;;;;5117312;27;20122;-79
2023/03/05 09:13:11;;;;;;;6.50;1.35;;;5.50;84.30;;;;;;5117174;27;20490;-79
2023/03/05 09:15:37;;;;;;;5.95;1.30;;;5.40;84.40;;;;;;5117148;27;20487;-78
2023/03/05 09:18:03;;;;;;;8.77;1.27;;;5.30;84.90;;;;;;5100504;27;20399;-80
2023/03/05 09:20:29;;;;;;;6.88;1.45;;;5.30;85.20;;;;;;5100020;27;20079;-80
2023/03/05 09:22:55;;;;;;;8.90;1.20;;;5.30;85.20;;;;;;5100192;27;20039;-81
2023/03/05 09:25:21;;;;;;;6.85;1.40;;;5.30;85.40;;;;;;5083330;27;20043;-79
2023/03/05 09:27:47;;;;;;;6.43;1.98;;;5.30;85.50;;;;;;5117005;27;20076;-79
2023/03/05 09:30:14;;;;;;;5.35;1.25;;;5.40;85.50;;;;;;5116855;27;20533;-78
2023/03/05 09:32:40;;;;;;;5.97;1.20;;;5.50;85.60;;;;;;5100012;27;20035;-79
2023/03/05 09:35:06;;;;;;;7.82;1.35;;;5.50;84.90;;;;;;5116934;27;20039;-79
2023/03/05 09:37:32;;;;;;;10.07;1.95;;;5.60;84.60;;;;;;5116893;27;20039;-78
2023/03/05 09:39:58;;;;;;;7.78;1.42;;;5.70;84.20;;;;;;5099746;27;20043;-78
2023/03/05 09:42:42;;;;;;;7.03;1.85;;;5.80;83.80;;;;;;5083098;27;20189;-78
2023/03/05 09:45:24;;;;;;;7.18;1.88;;;6.00;83.30;;;;;;5116662;27;20395;-81
2023/03/05 09:48:15;;;;;;;6.00;1.20;;;6.00;82.50;;;;;;5116471;27;20047;-77
2023/03/05 09:50:47;;;;;;;6.40;1.23;;;6.10;81.20;;;;;;5099438;27;20043;-76
2023/03/05 09:53:33;;;;;;;9.13;2.42;;;6.10;80.80;;;;;;5117317;27;20133;-77
2023/03/05 09:56:09;;;;;;;5.35;1.70;;;6.00;81.30;;;;;;5099498;27;20043;-76
2023/03/05 09:58:41;;;;;;;5.32;1.17;;;6.00;81.80;;;;;;5116368;27;20046;-77
2023/03/05 10:01:14;;;;;;;5.63;1.20;;;6.00;82.00;;;;;;5116152;27;20433;-79
2023/03/05 10:04:03;;;;;;;5.15;0.75;;;6.10;82.20;;;;;;5099178;27;20600;-77
2023/03/05 10:06:51;;;;;;;7.07;1.35;;;6.10;81.10;;;;;;5099116;27;20517;-77
2023/03/05 10:09:47;;;;;;;5.75;1.38;;;6.20;81.00;;;;;;5116403;27;20042;-77
2023/03/05 10:12:42;;;;;;;3.35;1.05;;;6.30;80.70;;;;;;5075013;27;20047;-79
2023/03/05 10:15:50;;;;;;;3.70;1.02;;;6.40;80.20;;;;;;5115956;27;20084;-78
2023/03/05 10:18:34;;;;;;;7.35;1.05;;;6.50;79.10;;;;;;5089836;27;20126;-78
2023/03/05 10:21:02;;;;;;;3.63;1.05;;;6.60;78.40;;;;;;5116228;27;20043;-80
2023/03/05 10:23:47;;;;;;;8.07;1.40;;;6.50;79.20;;;;;;5116135;28;20126;-80
2023/03/05 10:26:28;;;;;;;5.32;1.10;;;6.60;79.30;;;;;;5115990;28;20043;-80
2023/03/05 10:29:02;;;;;;;4.90;1.40;;;6.70;79.50;;;;;;5099062;28;20649;-77
2023/03/05 10:31:57;;;;;;;3.55;0.95;;;6.90;78.40;;;;;;5115787;28;20414;-77
2023/03/05 10:34:32;;;;;;;8.77;0.97;;;7.00;78.00;;;;;;5115917;28;20039;-79
2023/03/05 10:37:25;;;;;;;4.47;0.95;;;7.00;78.00;;;;;;5116033;28;20035;-79
2023/03/05 10:39:53;;;;;;;5.53;0.85;;;6.80;77.00;;;;;;5098940;28;20035;-78
2023/03/05 10:42:51;;;;;;;5.60;0.80;;;6.70;76.70;;;;;;5098854;28;20558;-79
2023/03/05 10:45:23;;;;;;;2.83;0.63;;;6.60;77.40;;;;;;5044343;28;20055;-79
2023/03/05 10:48:04;;;;;;;4.57;0.70;;;6.70;75.80;;;;;;5115710;28;20035;-79
2023/03/05 10:50:39;;;;;;;4.70;0.95;;;6.70;74.90;;;;;;5115764;28;20046;-79
2023/03/05 10:53:26;;;;;;;3.97;1.30;;;6.80;74.80;;;;;;5115715;27;20042;-79
2023/03/05 10:55:55;;;;;;;4.05;0.80;;;7.00;74.30;;;;;;5115630;28;20102;-78
2023/03/05 10:58:24;;;;;;;3.45;0.80;;;7.10;73.80;;;;;;5115519;28;20117;-82
2023/03/05 11:01:20;;;;;;;2.70;0.73;;;7.10;73.50;;;;;;5094964;28;20055;-79
2023/03/05 11:03:56;;;;;;;3.45;0.82;;;7.20;74.30;;;;;;5111945;28;20051;-81
2023/03/05 11:06:42;;;;;;;5.82;0.75;;;7.20;73.80;;;;;;5095232;28;20495;-81
2023/03/05 11:09:17;;;;;;;5.03;0.80;;;7.20;73.20;;;;;;5095056;28;20039;-78
2023/03/05 11:11:44;;;;;;;3.00;0.50;;;7.20;74.20;;;;;;5112049;28;20043;-79
2023/03/05 11:14:29;;;;;;;5.20;1.52;;;7.40;74.70;;;;;;5112066;28;20039;-77
2023/03/05 11:16:55;;;;;;;5.65;0.82;;;7.30;74.30;;;;;;5111999;28;20114;-77
2023/03/05 11:19:28;;;;;;;4.95;1.08;;;7.30;74.20;;;;;;5098299;28;20036;-79
2023/03/05 11:22:20;;;;;;;1.23;0.52;;;7.30;74.50;;;;;;5115967;28;20044;-78
2023/03/05 11:25:14;;;;;;;3.38;0.85;;;7.30;74.30;;;;;;5115779;28;20093;-78
2023/03/05 11:27:48;;;;;;;1.75;0.63;;;7.50;73.30;;;;;;5115657;28;20031;-77
2023/03/05 11:30:20;;;;;;;3.88;0.93;;;7.60;72.60;;;;;;5115842;28;20044;-76
2023/03/05 11:32:46;;;;;;;8.98;1.20;;;7.50;72.30;;;;;;5115516;28;20036;-77
2023/03/05 11:35:30;;;;;;;3.58;1.00;;;7.50;72.50;;;;;;5098774;28;20038;-77
2023/03/05 11:38:04;;;;;;;5.00;1.63;;;7.30;72.60;;;;;;5098514;28;20084;-77
2023/03/05 11:40:34;;;;;;;;;;;7.30;74.10;;;;;;5098918;28;20046;-81
2023/03/05 11:43:02;;;;;;;2.33;0.90;;;7.20;73.60;;;;;;5115427;28;20309;-81
2023/03/05 11:45:30;;;;;;;8.43;1.52;;;7.20;73.80;;;;;;5115350;28;20448;-81
2023/03/05 11:48:19;;;;;;;3.58;1.02;;;7.30;74.10;;;;;;5098429;28;20386;-81
2023/03/05 11:50:49;;;;;;;8.57;0.93;;;7.50;73.80;;;;;;5098220;28;20050;-82
2023/03/05 11:53:27;;;;;;;6.63;0.80;;;7.60;73.30;;;;;;5115856;28;20396;-80
2023/03/05 11:56:13;;;;;;;7.13;1.80;;;7.60;72.90;;;;;;5098297;28;20035;-81
2023/03/05 11:59:02;;;;;;;1.77;0.68;;;7.50;73.70;;;;;;5098649;28;20032;-79
2023/03/05 12:01:31;;;;;;;5.13;0.93;;;7.40;73.20;;;;;;5098378;28;20105;-80
2023/03/05 12:03:58;;;;;;;7.60;1.55;;;7.10;73.80;;;;;;5115037;28;20089;-80
2023/03/05 12:06:39;;;;;;;11.52;2.42;;;7.00;74.70;;;;;;5115202;28;20058;-80
2023/03/05 12:09:22;;;;;;;4.95;1.00;;;6.90;75.00;;;;;;5098394;28;20042;-81
2023/03/05 12:11:56;;;;;;;5.63;1.70;;;7.00;74.90;;;;;;5114726;28;20051;-78
2023/03/05 12:14:31;;;;;;;4.47;0.90;;;7.10;75.20;;;;;;5114678;28;20028;-81
2023/03/05 12:17:06;;;;;;;4.97;0.88;;;7.40;74.60;;;;;;5097955;28;20040;-81
2023/03/05 12:19:40;;;;;;;2.95;0.90;;;7.50;73.20;;;;;;5114595;28;20047;-80
2023/03/05 12:22:20;;;;;;;2.67;0.80;;;7.40;72.60;;;;;;5115001;28;20433;-80
2023/03/05 12:24:47;;;;;;;5.68;1.02;;;7.30;72.70;;;;;;5114386;28;20044;-80
2023/03/05 12:27:15;;;;;;;4.75;0.80;;;7.10;73.30;;;;;;5080733;28;20111;-81
2023/03/05 12:29:47;;;;;;;2.53;0.55;;;7.00;74.10;;;;;;5113590;28;20453;-78
2023/03/05 12:32:34;;;;;;;4.35;0.60;;;7.00;74.10;;;;;;5114531;28;20039;-79
2023/03/05 12:35:05;;;;;;;6.57;1.05;;;7.00;74.50;;;;;;5114323;28;20550;-80
2023/03/05 12:37:31;;;;;;;4.00;0.63;;;7.00;74.00;;;;;;5114326;28;20486;-79
2023/03/05 12:40:03;;;;;;;3.70;0.57;;;6.90;73.90;;;;;;5114577;28;20040;-80
2023/03/05 12:42:29;;;;;;;4.25;0.90;;;7.00;74.00;;;;;;5114298;28;20433;-79
2023/03/05 12:45:18;;;;;;;10.30;1.05;;;7.00;74.00;;;;;;5114140;28;20032;-78
2023/03/05 12:47:46;;;;;;;5.88;2.08;;;7.10;74.50;;;;;;5097178;28;20127;-79
2023/03/05 12:50:27;;;;;;;3.35;1.10;;;7.20;73.70;;;;;;5097279;28;20046;-80
2023/03/05 12:52:53;;;;;;;3.47;1.25;;;7.30;73.80;;;;;;5113823;28;20104;-79
2023/03/05 12:55:32;;;;;;;1.88;0.57;;;7.40;73.00;;;;;;5113831;28;20040;-78
2023/03/05 12:58:13;;;;;;;6.00;1.70;;;7.50;72.20;;;;;;5113849;28;20048;-80
2023/03/05 13:00:43;;;;;;;2.40;0.70;;;7.50;71.50;;;;;;5113611;28;20131;-78
2023/03/05 13:03:21;;;;;;;6.03;1.92;;;7.50;71.30;;;;;;5113624;28;20075;-79
2023/03/05 13:05:55;;;;;;;3.50;0.85;;;7.60;72.20;;;;;;5113877;28;20050;-79
2023/03/05 13:08:23;;;;;;;4.00;1.27;;;7.80;72.50;;;;;;5114155;28;20359;-80